Time;durP1;ratioP1;P1;durP2;ratioP2;P2;SDS_P1;SDS_P2;PMS_P1;PMS_P2;Temp;Humidity;BMP_temperature;BMP_pressure;BME280_temperature;BME280_humidity;BME280_pressure;Samples;Min_cycle;Max_cycle;Signal;HPM_P1;HPM_P2
2022/04/26 03:37:20;;;;;;;12.98;8.27;;;;;;;6.88;93.94;93442.84;5070305;28;20635;-53
2022/04/26 03:39:47;;;;;;;11.52;7.35;;;;;;;6.69;93.81;93439.50;5069089;28;20052;-49
2022/04/26 03:42:14;;;;;;;11.25;6.75;;;;;;;6.52;94.50;93443.16;5070139;28;20044;-49
2022/04/26 03:44:42;;;;;;;10.40;6.30;;;;;;;6.49;95.18;93433.06;5069400;28;20046;-49
2022/04/26 03:47:09;;;;;;;10.52;6.38;;;;;;;6.64;94.69;93439.16;5069972;28;20040;-47
2022/04/26 03:49:37;;;;;;;10.60;6.38;;;;;;;6.68;94.62;93437.97;5069404;28;20043;-52
2022/04/26 03:52:04;;;;;;;9.55;6.03;;;;;;;6.76;93.77;93446.84;5069973;28;20071;-52
2022/04/26 03:54:31;;;;;;;10.63;6.00;;;;;;;6.70;93.62;93445.72;5069398;28;20036;-51
2022/04/26 03:56:58;;;;;;;9.83;6.20;;;;;;;6.84;93.38;93450.28;5069206;28;20040;-52
2022/04/26 03:59:25;;;;;;;10.40;6.28;;;;;;;6.92;93.35;93452.56;5069850;28;20044;-53
2022/04/26 04:01:52;;;;;;;11.82;6.35;;;;;;;6.89;93.04;93456.09;5068775;28;20374;-46
2022/04/26 04:04:20;;;;;;;11.70;6.65;;;;;;;6.99;92.95;93459.91;5069879;28;20040;-48
2022/04/26 04:06:46;;;;;;;11.07;7.15;;;;;;;6.92;92.55;93454.50;5067603;28;20067;-52
2022/04/26 04:09:13;;;;;;;13.13;6.60;;;;;;;6.59;94.21;93456.72;5069481;28;20059;-46
2022/04/26 04:11:40;;;;;;;11.48;6.95;;;;;;;6.50;94.05;93461.84;5068831;28;20036;-55
2022/04/26 04:14:07;;;;;;;11.85;7.18;;;;;;;6.52;93.97;93473.13;5069623;28;20059;-47
2022/04/26 04:16:33;;;;;;;12.15;6.53;;;;;;;6.63;92.42;93464.91;5067627;28;20043;-47
2022/04/26 04:19:19;;;;;;;10.65;5.95;;;;;;;6.80;92.05;93462.03;5069086;28;20047;-46
2022/04/26 04:21:49;;;;;;;10.93;6.17;;;;;;;6.86;91.16;93467.03;5068759;28;20045;-46
2022/04/26 04:24:17;;;;;;;10.23;6.00;;;;;;;6.95;90.75;93470.09;5069367;28;20066;-48
2022/04/26 04:26:44;;;;;;;9.80;5.90;;;;;;;6.94;90.38;93463.06;5068611;28;20040;-48
2022/04/26 04:29:11;;;;;;;10.35;5.80;;;;;;;6.89;90.87;93474.44;5069488;28;20041;-46
2022/04/26 04:31:38;;;;;;;10.68;5.75;;;;;;;6.86;91.80;93464.31;5067388;28;20049;-50
2022/04/26 04:34:06;;;;;;;8.53;5.20;;;;;;;6.77;90.08;93473.72;5069441;28;20036;-49
2022/04/26 04:36:32;;;;;;;9.52;5.82;;;;;;;6.70;90.71;93475.72;5069224;28;20046;-47
2022/04/26 04:39:00;;;;;;;9.75;6.07;;;;;;;6.83;90.67;93474.06;5087947;28;20606;-48
2022/04/26 04:41:27;;;;;;;9.85;5.90;;;;;;;6.84;91.33;93472.13;5089317;28;20036;-46
2022/04/26 04:43:54;;;;;;;9.55;5.28;;;;;;;6.44;91.10;93477.09;5088690;28;20042;-50
2022/04/26 04:46:21;;;;;;;9.27;5.60;;;;;;;6.40;91.56;93485.31;5089081;28;20044;-51
2022/04/26 04:48:48;;;;;;;9.80;6.10;;;;;;;6.42;92.67;93490.34;5087201;28;20507;-48
2022/04/26 04:51:14;;;;;;;9.93;6.00;;;;;;;6.32;93.16;93487.28;5089376;28;20040;-52
2022/04/26 04:53:41;;;;;;;11.57;5.85;;;;;;;6.40;93.46;93485.31;5088660;28;20054;-47
2022/04/26 04:56:09;;;;;;;11.10;6.20;;;;;;;6.55;93.25;93486.75;5088013;28;20057;-46
2022/04/26 04:58:37;;;;;;;10.20;6.30;;;;;;;6.68;92.73;93489.00;5088605;28;20054;-48
2022/04/26 05:01:04;;;;;;;11.07;5.60;;;;;;;6.69;91.97;93485.09;5065496;28;20059;-53
2022/04/26 05:03:31;;;;;;;9.20;5.32;;;;;;;6.72;92.33;93476.91;5049628;28;20052;-48
2022/04/26 05:05:58;;;;;;;9.50;5.72;;;;;;;6.73;91.61;93485.84;5048636;28;20051;-46
2022/04/26 05:08:25;;;;;;;10.57;6.72;;;;;;;6.82;91.80;93482.66;5062624;28;20059;-51
2022/04/26 05:10:52;;;;;;;9.67;5.80;;;;;;;6.85;91.56;93485.38;5068192;28;20037;-50
2022/04/26 05:13:19;;;;;;;10.05;5.90;;;;;;;6.89;91.36;93488.06;5067445;28;20040;-48
2022/04/26 05:15:47;;;;;;;10.85;6.57;;;;;;;6.94;91.34;93493.06;5067928;28;20044;-50
2022/04/26 05:18:14;;;;;;;10.35;6.40;;;;;;;6.90;90.64;93495.06;5068769;28;20040;-50
2022/04/26 05:20:42;;;;;;;10.75;6.63;;;;;;;6.90;91.27;93497.78;5068034;28;20048;-54
2022/04/26 05:25:54;;;;;;;10.25;6.32;;;;;;;7.08;90.63;93492.94;5071731;28;20047;-52
2022/04/26 05:28:21;;;;;;;9.18;5.60;;;;;;;7.08;90.21;93498.41;5071460;28;20051;-53
2022/04/26 05:30:53;;;;;;;9.40;5.63;;;;;;;7.04;90.32;93496.88;5071496;28;20067;-53
2022/04/26 05:33:21;;;;;;;9.85;5.70;;;;;;;7.02;89.92;93497.28;5072446;28;20041;-50
2022/04/26 05:35:49;;;;;;;8.40;5.37;;;;;;;6.98;89.96;93502.81;5071462;28;20052;-48
2022/04/26 05:38:16;;;;;;;9.23;5.43;;;;;;;6.99;90.67;93496.16;5070890;28;20446;-51
2022/04/26 05:40:44;;;;;;;11.38;6.38;;;;;;;7.10;90.69;93506.19;5071769;28;20052;-52
2022/04/26 05:43:11;;;;;;;9.30;5.82;;;;;;;7.03;90.44;93495.34;5072192;28;20042;-47
2022/04/26 05:45:37;;;;;;;10.63;6.18;;;;;;;7.11;90.00;93505.78;5069894;28;20041;-47
2022/04/26 05:48:09;;;;;;;12.43;7.13;;;;;;;7.09;90.09;93502.69;5071843;28;20051;-52
2022/04/26 05:50:37;;;;;;;10.02;6.25;;;;;;;6.99;90.10;93507.06;5070319;28;20043;-48
2022/04/26 05:53:04;;;;;;;9.48;6.05;;;;;;;7.01;90.34;93501.22;5071183;28;20040;-48
2022/04/26 05:55:30;;;;;;;11.35;6.20;;;;;;;7.12;89.79;93498.38;5071681;28;20059;-48
2022/04/26 05:57:57;;;;;;;12.50;7.20;;;;;;;7.22;90.17;93505.69;5070945;28;20117;-46
2022/04/26 06:00:24;;;;;;;12.73;7.20;;;;;;;7.27;89.10;93507.22;5070595;28;20059;-53
2022/04/26 06:02:51;;;;;;;11.77;7.45;;;;;;;7.26;90.11;93505.66;5070908;28;20051;-52
2022/04/26 06:05:20;;;;;;;14.02;7.68;;;;;;;7.20;90.41;93508.84;5071810;28;20120;-46
2022/04/26 06:07:47;;;;;;;13.50;7.95;;;;;;;7.23;90.26;93509.22;5070884;28;20056;-54
2022/04/26 06:10:14;;;;;;;11.00;6.75;;;;;;;7.00;89.94;93508.63;5071579;28;20047;-50
2022/04/26 06:12:44;;;;;;;13.90;7.37;;;;;;;6.65;90.86;93515.13;5071170;28;20033;-50
2022/04/26 06:15:11;;;;;;;15.00;7.68;;;;;;;6.24;92.63;93509.50;5071250;28;20056;-46
2022/04/26 06:17:38;;;;;;;13.43;8.23;;;;;;;5.97;94.62;93505.38;5071029;28;20052;-46
2022/04/26 06:20:05;;;;;;;15.73;8.38;;;;;;;6.12;95.02;93508.03;5070968;28;20035;-50
2022/04/26 06:22:32;;;;;;;13.60;7.93;;;;;;;6.34;93.80;93508.72;5071456;28;20040;-53
2022/04/26 06:24:58;;;;;;;12.40;7.50;;;;;;;6.75;92.65;93514.25;5069134;28;20044;-48
2022/04/26 06:27:25;;;;;;;12.75;7.38;;;;;;;6.97;91.08;93520.31;5071499;28;20036;-46
2022/04/26 06:29:52;;;;;;;10.85;6.57;;;;;;;6.94;86.76;93526.59;5066332;28;20040;-48
2022/04/26 06:32:19;;;;;;;11.00;6.35;;;;;;;7.05;84.00;93515.59;5054236;28;20041;-50
2022/04/26 06:34:46;;;;;;;10.52;6.25;;;;;;;7.17;82.47;93514.31;5048931;28;20118;-53
2022/04/26 06:37:14;;;;;;;10.37;6.07;;;;;;;7.17;81.59;93509.63;5048593;28;20037;-50
2022/04/26 06:39:41;;;;;;;9.45;5.75;;;;;;;7.38;80.48;93502.44;5050229;28;20482;-50
2022/04/26 06:42:08;;;;;;;10.38;6.20;;;;;;;7.48;80.19;93507.00;5032347;28;20423;-51
2022/04/26 06:44:34;;;;;;;10.98;6.15;;;;;;;7.65;79.28;93510.75;5050071;28;20048;-49
2022/04/26 06:47:02;;;;;;;11.10;6.40;;;;;;;7.53;78.74;93509.31;5050353;28;20543;-48
2022/04/26 06:49:29;;;;;;;10.23;6.23;;;;;;;7.20;76.14;93506.13;5050375;28;20033;-50
2022/04/26 06:51:57;;;;;;;11.90;6.45;;;;;;;7.32;77.91;93512.22;5048631;28;20051;-51
2022/04/26 06:54:23;;;;;;;10.95;6.32;;;;;;;7.32;78.28;93506.78;5050990;28;20152;-47
2022/04/26 06:56:50;;;;;;;11.88;6.47;;;;;;;7.24;78.03;93499.84;5050061;28;20653;-50
2022/04/26 06:59:17;;;;;;;10.65;6.40;;;;;;;7.18;78.40;93505.75;5050756;28;20067;-48
2022/04/26 07:01:44;;;;;;;12.17;7.00;;;;;;;7.33;78.12;93506.38;5050680;28;20037;-49
2022/04/26 07:04:11;;;;;;;10.85;6.75;;;;;;;7.35;79.22;93505.97;5049015;28;20045;-49
2022/04/26 07:06:39;;;;;;;11.02;6.90;;;;;;;7.54;78.46;93497.19;5049970;28;20068;-50
2022/04/26 07:09:07;;;;;;;10.55;6.63;;;;;;;7.60;78.67;93500.25;5070089;28;20037;-51
2022/04/26 07:11:34;;;;;;;12.27;7.50;;;;;;;7.67;79.07;93502.91;5069114;28;20052;-50
2022/04/26 07:14:01;;;;;;;11.93;7.23;;;;;;;7.68;79.40;93495.50;5070459;28;20045;-48
2022/04/26 07:16:27;;;;;;;10.90;6.68;;;;;;;7.72;79.48;93499.72;5069071;28;20040;-52
2022/04/26 07:18:55;;;;;;;13.02;7.43;;;;;;;7.77;80.25;93502.03;5069737;28;20093;-46
2022/04/26 07:21:22;;;;;;;11.05;6.85;;;;;;;7.65;82.34;93507.25;5069149;28;20037;-46
2022/04/26 07:23:49;;;;;;;12.38;7.00;;;;;;;7.70;82.14;93510.28;5069790;28;20040;-50
2022/04/26 07:26:16;;;;;;;11.93;6.57;;;;;;;7.56;83.34;93515.91;5069405;28;20161;-49
2022/04/26 07:28:42;;;;;;;11.98;7.35;;;;;;;7.52;84.01;93526.84;5069666;28;20047;-51
2022/04/26 07:31:09;;;;;;;13.02;7.40;;;;;;;7.43;83.42;93539.44;5059088;28;20067;-50
2022/04/26 07:36:22;;;;;;;11.93;6.78;;;;;;;7.58;82.94;93549.81;5050219;28;20052;-46
2022/04/26 07:38:50;;;;;;;12.00;6.83;;;;;;;7.58;82.86;93555.25;5049568;28;20052;-51
2022/04/26 07:41:17;;;;;;;10.38;6.22;;;;;;;7.66;82.01;93552.47;5048806;28;20041;-52
2022/04/26 07:43:44;;;;;;;14.90;7.18;;;;;;;7.53;82.92;93558.44;5049619;28;20665;-53
2022/04/26 07:46:14;;;;;;;15.25;7.50;;;;;;;7.32;83.02;93572.28;5049235;28;20158;-50
2022/04/26 07:48:43;;;;;;;12.32;7.13;;;;;;;6.92;82.04;93571.81;5049672;28;20407;-54
2022/04/26 07:51:11;;;;;;;17.43;10.97;;;;;;;6.99;83.59;93567.09;5049742;28;20049;-50
2022/04/26 07:53:38;;;;;;;19.20;12.40;;;;;;;7.07;84.22;93565.09;5047751;28;20040;-51
2022/04/26 07:56:06;;;;;;;14.25;8.77;;;;;;;7.21;83.52;93569.66;5049457;28;20037;-55
2022/04/26 07:58:32;;;;;;;15.70;7.38;;;;;;;7.58;81.94;93579.84;5049985;28;20512;-52
2022/04/26 08:01:00;;;;;;;14.35;7.47;;;;;;;7.95;80.91;93594.72;5048584;28;22420;-51
2022/04/26 08:03:28;;;;;;;10.53;6.50;;;;;;;8.02;81.04;93571.22;5049915;28;20041;-48
2022/04/26 08:05:55;;;;;;;14.27;6.82;;;;;;;8.06;80.17;93572.72;5049391;28;20061;-50
2022/04/26 08:08:22;;;;;;;13.25;6.72;;;;;;;7.57;80.30;93596.66;5063088;28;20040;-51
2022/04/26 08:10:55;;;;;;;11.27;6.75;;;;;;;7.63;81.15;93600.50;5069172;28;20048;-47
2022/04/26 08:13:22;;;;;;;11.00;6.40;;;;;;;7.84;80.21;93604.19;5068776;28;20495;-45
2022/04/26 08:15:49;;;;;;;11.80;6.47;;;;;;;7.85;77.84;93587.41;5069310;28;20048;-46
2022/04/26 08:18:16;;;;;;;11.93;6.40;;;;;;;7.62;77.61;93588.00;5069516;28;20040;-49
2022/04/26 08:20:44;;;;;;;11.68;7.13;;;;;;;7.67;78.18;93609.44;5068935;28;20040;-48
2022/04/26 08:23:12;;;;;;;11.65;7.38;;;;;;;7.85;79.51;93622.13;5067762;28;20377;-52
2022/04/26 08:28:28;;;;;;;12.17;7.00;;;;;;;8.32;79.80;93616.97;5069685;28;20409;-49
2022/04/26 08:30:58;;;;;;;11.68;6.47;;;;;;;8.54;76.34;93609.31;5068846;28;20049;-52
2022/04/26 08:33:25;;;;;;;11.27;6.63;;;;;;;8.52;75.18;93626.13;5069478;28;20063;-47
2022/04/26 08:35:53;;;;;;;11.82;6.82;;;;;;;8.49;75.47;93626.16;5069510;28;20045;-51
2022/04/26 08:38:30;;;;;;;11.98;7.00;;;;;;;8.69;75.31;93634.50;5069340;28;20075;-55
2022/04/26 08:40:57;;;;;;;12.53;6.57;;;;;;;9.17;73.74;93634.25;5067728;28;20076;-49
2022/04/26 08:43:23;;;;;;;10.65;6.90;;;;;;;9.49;71.08;93640.44;5067360;28;20482;-46
2022/04/26 08:45:50;;;;;;;10.48;6.25;;;;;;;9.56;71.47;93643.06;5057378;28;20045;-46
2022/04/26 08:51:03;;;;;;;9.20;6.35;;;;;;;14.54;59.14;93638.06;5068397;28;20044;-47
2022/04/26 08:53:32;;;;;;;10.37;6.40;;;;;;;16.89;48.41;93620.22;5069270;28;20068;-52
2022/04/26 08:56:03;;;;;;;9.63;5.82;;;;;;;17.40;46.57;93634.59;5068280;28;21551;-48
2022/04/26 08:58:32;;;;;;;8.13;5.50;;;;;;;16.00;46.38;93638.59;5072482;28;20050;-49
2022/04/26 09:01:12;;;;;;;7.90;5.63;;;;;;;15.06;50.16;93644.16;5080593;28;20036;-49
2022/04/26 09:03:41;;;;;;;8.95;5.90;;;;;;;14.97;51.90;93633.06;5072677;28;20053;-50
2022/04/26 09:06:15;;;;;;;8.27;6.13;;;;;;;13.99;55.53;93637.59;5071614;28;20048;-54
2022/04/26 09:08:43;;;;;;;9.82;5.60;;;;;;;14.73;51.44;93632.75;5072451;28;20029;-50
2022/04/26 09:11:20;;;;;;;8.27;5.70;;;;;;;13.52;52.86;93638.28;5071430;28;20062;-51
2022/04/26 09:13:47;;;;;;;8.40;5.22;;;;;;;16.87;47.61;93633.78;5071288;28;20105;-48
2022/04/26 09:16:21;;;;;;;9.83;5.30;;;;;;;16.46;46.28;93630.38;5072516;28;20063;-51
2022/04/26 09:18:54;;;;;;;7.33;5.07;;;;;;;15.42;47.39;93642.81;5072201;28;20272;-52
2022/04/26 09:21:26;;;;;;;9.25;5.60;;;;;;;16.40;45.42;93636.97;5072488;28;20043;-52
2022/04/26 09:24:01;;;;;;;8.27;5.38;;;;;;;19.74;41.09;93635.63;5072211;28;20045;-49
2022/04/26 09:26:38;;;;;;;7.75;5.30;;;;;;;20.88;35.84;93639.47;5072877;28;20048;-55
2022/04/26 09:29:07;;;;;;;6.70;5.10;;;;;;;19.07;38.90;93643.53;5071467;28;21864;-52
2022/04/26 09:31:37;;;;;;;10.17;5.80;;;;;;;17.21;40.83;93644.97;5071960;28;20071;-52
2022/04/26 09:34:14;;;;;;;7.78;5.88;;;;;;;16.13;44.51;93655.09;5072314;28;20392;-47
2022/04/26 09:36:45;;;;;;;10.82;6.43;;;;;;;15.77;48.19;93660.06;5071908;28;20071;-50
2022/04/26 09:39:20;;;;;;;8.73;5.78;;;;;;;15.47;45.62;93646.97;5070706;28;20048;-47
2022/04/26 09:42:07;;;;;;;12.30;5.80;;;;;;;15.25;46.55;93655.31;5071226;28;20692;-50
2022/04/26 09:44:40;;;;;;;7.80;5.13;;;;;;;14.68;47.48;93660.91;5042286;28;20041;-48
2022/04/26 09:47:07;;;;;;;9.52;5.60;;;;;;;13.31;52.63;93661.75;5067997;28;20098;-51
2022/04/26 09:49:37;;;;;;;9.45;5.70;;;;;;;14.28;50.51;93661.47;5072059;28;20042;-48
2022/04/26 09:52:08;;;;;;;9.07;5.40;;;;;;;14.62;47.32;93671.00;5071914;28;20040;-50
2022/04/26 09:54:37;;;;;;;8.70;5.13;;;;;;;14.96;45.47;93659.13;5072003;28;20055;-52
2022/04/26 09:57:06;;;;;;;7.77;5.10;;;;;;;16.93;40.68;93670.72;5071940;28;20440;-54
2022/04/26 09:59:53;;;;;;;6.53;4.40;;;;;;;17.32;38.10;93659.13;5071753;28;20439;-50
2022/04/26 10:02:22;;;;;;;7.05;4.75;;;;;;;14.34;42.86;93668.72;5071757;28;20044;-52
2022/04/26 10:04:53;;;;;;;8.02;4.50;;;;;;;13.65;42.65;93663.88;5071559;28;20056;-50
2022/04/26 10:07:22;;;;;;;8.23;5.03;;;;;;;14.13;43.83;93672.97;5071339;28;20042;-50
2022/04/26 10:09:49;;;;;;;9.70;4.77;;;;;;;14.68;43.85;93661.69;5071447;28;20040;-48
2022/04/26 10:12:16;;;;;;;7.35;4.72;;;;;;;15.76;42.54;93669.56;5071498;28;20036;-47
2022/04/26 10:14:44;;;;;;;7.85;5.10;;;;;;;17.58;37.97;93657.50;5071188;28;20113;-50
2022/04/26 10:17:14;;;;;;;7.95;4.53;;;;;;;19.39;35.79;93658.53;5071416;28;20071;-51
2022/04/26 10:19:45;;;;;;;7.82;4.28;;;;;;;21.15;31.72;93663.34;5070951;28;20052;-52
2022/04/26 10:22:16;;;;;;;5.37;4.00;;;;;;;23.30;28.76;93657.25;5070018;28;20045;-49
2022/04/26 10:25:09;;;;;;;5.35;4.15;;;;;;;20.09;32.72;93657.16;5069803;28;20062;-51
2022/04/26 10:27:35;;;;;;;6.72;4.78;;;;;;;17.24;36.31;93661.44;5071090;28;20052;-47
2022/04/26 10:30:03;;;;;;;6.72;4.85;;;;;;;16.11;38.14;93674.91;5071117;28;20408;-47
2022/04/26 10:32:29;;;;;;;7.60;4.97;;;;;;;14.92;42.04;93683.34;5071380;28;20338;-52
2022/04/26 10:35:25;;;;;;;8.43;5.40;;;;;;;14.40;44.02;93679.97;5069925;28;20398;-50
2022/04/26 10:38:07;;;;;;;6.97;4.55;;;;;;;15.03;42.16;93675.47;5070709;28;20479;-47
2022/04/26 10:41:07;;;;;;;10.35;5.30;;;;;;;15.91;40.34;93689.16;5070990;28;20511;-46
2022/04/26 10:43:34;;;;;;;9.48;5.22;;;;;;;19.44;34.96;93682.91;5068384;28;20044;-49
2022/04/26 10:46:15;;;;;;;6.47;4.30;;;;;;;21.71;32.34;93679.16;5070885;28;20063;-52
2022/04/26 10:48:42;;;;;;;6.47;4.20;;;;;;;22.75;29.18;93675.31;5070871;28;20044;-52
2022/04/26 10:51:46;;;;;;;6.82;4.18;;;;;;;22.80;29.39;93671.00;5070847;28;20047;-55
2022/04/26 10:54:13;;;;;;;6.25;4.40;;;;;;;20.27;30.67;93679.19;5069345;28;21579;-48
2022/04/26 10:56:39;;;;;;;8.98;6.63;;;;;;;16.09;38.09;93680.13;5070461;28;20051;-50
2022/04/26 10:59:13;;;;;;;7.03;4.90;;;;;;;15.18;37.72;93682.00;5070650;28;20048;-50
2022/04/26 11:01:42;;;;;;;6.30;4.33;;;;;;;14.41;40.01;93683.50;5070191;28;20040;-51
2022/04/26 11:04:16;;;;;;;7.53;4.18;;;;;;;13.70;43.79;93701.16;5070636;28;20408;-52
2022/04/26 11:06:43;;;;;;;7.05;4.80;;;;;;;14.22;42.35;93699.88;5070407;28;20040;-51
2022/04/26 11:09:12;;;;;;;7.95;4.80;;;;;;;14.25;45.08;93709.28;5048875;28;20049;-49
2022/04/26 11:12:05;;;;;;;7.95;5.40;;;;;;;12.80;55.52;93706.47;5048755;28;20048;-49
2022/04/26 11:14:40;;;;;;;9.97;5.60;;;;;;;13.05;56.47;93714.03;5048724;28;20455;-51
2022/04/26 11:17:07;;;;;;;8.88;5.55;;;;;;;14.23;54.11;93722.75;5048293;28;20210;-47
2022/04/26 11:19:36;;;;;;;9.70;5.55;;;;;;;13.97;53.68;93722.78;5049872;28;20045;-49
2022/04/26 11:22:08;;;;;;;7.85;5.80;;;;;;;12.31;57.11;93728.56;5049384;28;20041;-49
2022/04/26 11:30:10;;;;;;;6.32;3.88;;;;;;;9.77;63.11;93777.00;5079988;28;20804;-51
2022/04/26 11:32:42;;;;;;;6.72;3.70;;;;;;;9.58;65.02;93789.41;5061594;28;20052;-46
2022/04/26 11:35:11;;;;;;;8.63;3.88;;;;;;;9.66;67.05;93803.78;5070099;28;20142;-49
2022/04/26 11:37:54;;;;;;;7.30;3.97;;;;;;;8.09;67.62;93822.56;5069810;28;20177;-49
2022/04/26 11:40:28;;;;;;;7.17;3.80;;;;;;;6.96;70.17;93821.63;5070241;28;20048;-49
2022/04/26 11:42:57;;;;;;;7.18;4.03;;;;;;;6.98;69.89;93816.53;5069555;28;20045;-47
2022/04/26 11:45:28;;;;;;;8.73;4.10;;;;;;;6.99;71.30;93818.09;5069845;28;20040;-47
2022/04/26 11:47:56;;;;;;;6.95;4.10;;;;;;;7.04;70.90;93816.13;5069663;28;20408;-52
2022/04/26 11:50:25;;;;;;;6.60;4.05;;;;;;;7.16;70.91;93818.41;5069877;28;20113;-50
2022/04/26 11:52:58;;;;;;;9.33;4.50;;;;;;;7.37;70.26;93826.50;5069525;28;20082;-51
2022/04/26 11:55:28;;;;;;;7.75;4.53;;;;;;;6.98;71.18;93827.47;5069750;28;20413;-49
2022/04/26 11:58:16;;;;;;;7.40;4.40;;;;;;;7.07;72.53;93824.31;5069484;28;20527;-50
2022/04/26 12:01:02;;;;;;;7.38;4.57;;;;;;;7.09;70.95;93823.91;5069598;28;20040;-50
2022/04/26 12:03:38;;;;;;;7.10;4.18;;;;;;;7.30;69.43;93820.31;5070040;28;20040;-46
2022/04/26 12:06:08;;;;;;;8.23;4.40;;;;;;;7.39;69.37;93828.84;5076347;28;20638;-50
2022/04/26 12:08:41;;;;;;;8.60;4.60;;;;;;;7.20;68.16;93827.34;5069433;28;20045;-48
2022/04/26 12:11:21;;;;;;;9.18;4.78;;;;;;;7.96;68.49;93833.97;5069752;28;20037;-50
2022/04/26 12:14:07;;;;;;;6.65;4.45;;;;;;;7.47;70.33;93826.88;5069274;28;20051;-50
2022/04/26 12:16:47;;;;;;;7.78;4.40;;;;;;;8.23;68.71;93818.97;5069834;28;20055;-50
2022/04/26 12:19:15;;;;;;;6.90;4.17;;;;;;;8.96;65.07;93821.44;5068421;28;20037;-51
2022/04/26 12:21:52;;;;;;;8.98;4.43;;;;;;;9.17;66.32;93814.16;5069329;28;20044;-54
2022/04/26 12:24:25;;;;;;;7.32;4.47;;;;;;;9.06;65.07;93816.28;5068204;28;20200;-50
2022/04/26 12:27:01;;;;;;;9.30;5.00;;;;;;;8.30;67.63;93824.38;5069495;28;20049;-47
2022/04/26 12:29:41;;;;;;;9.25;4.90;;;;;;;8.67;67.14;93826.44;5064941;28;20040;-49
2022/04/26 12:32:11;;;;;;;9.20;4.63;;;;;;;8.37;66.70;93822.38;5062598;28;20657;-47
2022/04/26 12:34:48;;;;;;;13.80;5.70;;;;;;;7.56;71.13;93817.06;5073379;28;20048;-47
2022/04/26 12:37:23;;;;;;;7.82;5.13;;;;;;;8.13;70.78;93809.66;5073491;28;20044;-52
2022/04/26 12:39:55;;;;;;;11.43;5.38;;;;;;;8.94;69.95;93799.19;5073343;28;20101;-50
2022/04/26 12:42:27;;;;;;;10.38;5.70;;;;;;;9.83;66.37;93803.94;5073383;28;20043;-50
2022/04/26 12:44:59;;;;;;;9.07;5.90;;;;;;;8.96;66.50;93807.00;5072694;28;20068;-55
2022/04/26 12:50:30;;;;;;;9.45;6.13;;;;;;;8.42;68.92;93806.75;5078678;28;20191;-50
2022/04/26 12:53:00;;;;;;;9.48;5.88;;;;;;;8.22;71.04;93807.25;5072939;28;20044;-51
2022/04/26 12:55:29;;;;;;;7.60;5.05;;;;;;;7.95;69.38;93805.13;5073113;28;20118;-49
2022/04/26 12:57:59;;;;;;;8.53;5.30;;;;;;;8.26;70.80;93809.97;5072743;28;20489;-49
2022/04/26 13:00:28;;;;;;;7.57;5.00;;;;;;;9.22;69.88;93802.78;5072894;28;20074;-51
2022/04/26 13:03:03;;;;;;;7.70;4.78;;;;;;;9.97;66.03;93796.28;5072829;28;20060;-51
2022/04/26 13:05:39;;;;;;;6.90;4.22;;;;;;;9.51;66.79;93794.97;5073403;28;20045;-50
2022/04/26 13:08:07;;;;;;;10.63;4.60;;;;;;;10.27;67.14;93789.16;5071854;28;20071;-57
2022/04/26 13:10:34;;;;;;;7.63;4.40;;;;;;;10.62;65.41;93792.53;5072564;28;20037;-47
2022/04/26 13:13:01;;;;;;;7.78;4.40;;;;;;;10.57;63.29;93795.78;5072804;28;20054;-49
2022/04/26 13:15:28;;;;;;;6.25;4.22;;;;;;;10.28;64.75;93789.94;5072448;28;20048;-51
2022/04/26 13:17:56;;;;;;;7.88;4.15;;;;;;;10.79;62.31;93785.97;5072515;28;20045;-49
2022/04/26 13:20:24;;;;;;;5.70;4.10;;;;;;;10.68;62.04;93774.38;5072677;28;20045;-49
2022/04/26 13:22:51;;;;;;;7.10;4.50;;;;;;;10.56;65.39;93775.78;5071345;28;20400;-51
2022/04/26 13:25:18;;;;;;;6.63;4.22;;;;;;;9.94;66.23;93771.66;5072683;28;20106;-47
2022/04/26 13:27:48;;;;;;;7.90;4.90;;;;;;;9.57;68.13;93770.63;5072576;28;20412;-49
2022/04/26 13:30:16;;;;;;;6.78;4.65;;;;;;;10.11;66.84;93805.50;5061407;28;20107;-48
2022/04/26 13:32:43;;;;;;;7.95;5.78;;;;;;;9.75;67.06;93822.44;5052015;28;20051;-50
2022/04/26 13:35:11;;;;;;;11.23;7.23;;;;;;;8.88;64.81;93827.41;5052470;28;20045;-51
2022/04/26 13:37:38;;;;;;;11.15;7.30;;;;;;;8.96;65.13;93824.19;5051767;28;20064;-51
2022/04/26 13:40:08;;;;;;;10.90;7.70;;;;;;;8.83;64.99;93828.59;5052678;28;20051;-52
2022/04/26 13:42:36;;;;;;;13.00;8.38;;;;;;;9.10;67.00;93834.19;5051460;28;20117;-47
2022/04/26 13:45:04;;;;;;;15.80;10.02;;;;;;;8.77;67.49;93847.44;5052267;28;20066;-52
2022/04/26 13:47:30;;;;;;;16.27;9.40;;;;;;;8.83;66.28;93831.34;5052305;28;20059;-53
2022/04/26 13:49:57;;;;;;;12.55;7.38;;;;;;;8.82;66.58;93837.25;5051467;28;20390;-49
2022/04/26 13:52:24;;;;;;;14.27;8.75;;;;;;;8.65;65.51;93833.47;5050381;28;20033;-46
2022/04/26 13:54:51;;;;;;;12.57;8.00;;;;;;;9.27;63.34;93826.19;5051624;28;20049;-47
2022/04/26 13:57:18;;;;;;;13.40;8.90;;;;;;;9.84;61.53;93830.16;5052037;28;20037;-48
2022/04/26 13:59:45;;;;;;;11.03;6.93;;;;;;;10.23;63.95;93826.84;5051361;28;20156;-51
2022/04/26 14:02:13;;;;;;;11.10;7.22;;;;;;;9.14;63.84;93823.97;5051743;28;20048;-53
2022/04/26 14:04:40;;;;;;;13.95;8.32;;;;;;;9.93;62.95;93828.47;5051289;28;20037;-48
2022/04/26 14:07:07;;;;;;;18.33;7.82;;;;;;;9.64;62.41;93819.06;5054876;28;20041;-49
2022/04/26 14:09:34;;;;;;;9.98;7.07;;;;;;;10.21;61.27;93821.00;5069939;28;20121;-51
2022/04/26 14:12:02;;;;;;;12.53;8.77;;;;;;;9.99;61.47;93820.56;5072065;28;20037;-47
2022/04/26 14:22:46;;;;;;;14.13;7.13;;;;;;;10.35;57.72;93812.56;5069981;28;20052;-46
2022/04/26 14:25:14;;;;;;;13.53;7.60;;;;;;;10.56;58.48;93827.13;5071311;28;20063;-50
2022/04/26 14:27:43;;;;;;;11.63;7.68;;;;;;;10.68;57.02;93828.50;5071167;28;20078;-48
2022/04/26 14:30:12;;;;;;;11.98;8.13;;;;;;;10.51;56.67;93824.88;5062702;28;20043;-51
2022/04/26 14:32:59;;;;;;;10.65;7.00;;;;;;;10.66;55.73;93817.19;5066423;28;20044;-55
2022/04/26 14:35:31;;;;;;;11.68;6.97;;;;;;;10.43;57.20;93813.25;5070948;28;20036;-47
2022/04/26 14:37:59;;;;;;;11.93;6.73;;;;;;;10.59;56.20;93815.34;5069337;28;20102;-49
2022/04/26 14:40:26;;;;;;;11.85;6.95;;;;;;;10.85;55.05;93812.94;5070614;28;20064;-52
2022/04/26 14:42:54;;;;;;;11.25;6.68;;;;;;;11.12;53.83;93810.84;5070387;28;20067;-50
2022/04/26 14:45:21;;;;;;;9.57;6.07;;;;;;;11.26;52.98;93809.78;5071005;28;20044;-53
2022/04/26 14:47:49;;;;;;;10.35;6.68;;;;;;;11.67;52.91;93808.59;5070573;28;20046;-47
2022/04/26 14:50:18;;;;;;;10.70;6.80;;;;;;;11.68;52.64;93807.38;5070964;28;20082;-52
2022/04/26 14:52:44;;;;;;;10.63;6.57;;;;;;;11.45;52.33;93807.47;5069249;28;20043;-47
2022/04/26 14:55:11;;;;;;;14.10;6.95;;;;;;;11.00;54.01;93817.72;5069987;28;20045;-46
2022/04/26 14:57:38;;;;;;;13.07;8.63;;;;;;;11.08;53.80;93812.09;5070322;28;20047;-46
2022/04/26 15:00:07;;;;;;;12.65;7.60;;;;;;;10.52;55.19;93818.97;5070364;28;20037;-50
2022/04/26 15:02:41;;;;;;;12.03;7.83;;;;;;;10.50;56.55;93812.34;5070272;28;20055;-45
2022/04/26 15:05:11;;;;;;;11.63;7.90;;;;;;;10.66;55.97;93804.22;5070924;28;20067;-50
2022/04/26 15:10:25;;;;;;;17.02;9.65;;;;;;;11.28;55.42;93809.38;5070643;28;20054;-48
2022/04/26 15:18:23;;;;;;;12.98;8.60;;;;;;;10.21;58.96;93821.00;5070186;28;20040;-47
2022/04/26 15:20:52;;;;;;;13.02;8.15;;;;;;;10.23;58.58;93823.34;5069914;28;20048;-46
2022/04/26 15:23:20;;;;;;;13.65;8.75;;;;;;;9.96;60.64;93833.13;5070287;28;20039;-49
2022/04/26 15:25:52;;;;;;;13.85;8.55;;;;;;;9.56;63.68;93841.09;5070105;28;20048;-46
2022/04/26 15:28:20;;;;;;;13.70;8.40;;;;;;;9.25;63.59;93834.03;5069027;28;20120;-49
2022/04/26 15:30:48;;;;;;;14.85;8.90;;;;;;;9.57;66.54;93830.91;5069613;28;20045;-46
2022/04/26 15:33:19;;;;;;;15.38;8.70;;;;;;;9.70;65.45;93822.91;5070112;28;20051;-51
2022/04/26 15:35:46;;;;;;;14.70;8.30;;;;;;;9.67;65.84;93826.47;5069842;28;20059;-50
2022/04/26 15:38:14;;;;;;;12.38;7.75;;;;;;;9.94;64.10;93830.03;5068867;28;20045;-50
2022/04/26 15:40:42;;;;;;;14.50;7.80;;;;;;;10.04;64.25;93831.06;5069528;28;20053;-53
2022/04/26 15:43:09;;;;;;;12.35;6.78;;;;;;;10.09;65.49;93825.09;5070135;28;20044;-50
2022/04/26 15:45:36;;;;;;;12.02;7.30;;;;;;;10.08;65.86;93829.03;5069368;28;20037;-47
2022/04/26 15:48:06;;;;;;;8.88;5.82;;;;;;;9.41;62.78;93828.75;5070034;28;20036;-46
2022/04/26 15:50:33;;;;;;;11.50;6.72;;;;;;;9.15;66.32;93831.00;5051730;28;20409;-46
2022/04/26 15:53:00;;;;;;;12.03;7.20;;;;;;;9.69;66.46;93833.09;5089080;28;20036;-46
2022/04/26 15:55:34;;;;;;;10.02;6.30;;;;;;;9.64;63.48;93835.50;5090072;28;20043;-48
2022/04/26 15:58:01;;;;;;;11.68;6.35;;;;;;;9.59;63.34;93836.75;5089247;28;20416;-57